Time;durP1;ratioP1;P1;durP2;ratioP2;P2;SDS_P1;SDS_P2;PMS_P1;PMS_P2;Temp;Humidity;BMP_temperature;BMP_pressure;BME280_temperature;BME280_humidity;BME280_pressure;Samples;Min_cycle;Max_cycle;Signal;HPM_P1;HPM_P2
2023/06/05 00:01:02;;;;;;;;;;;18.20;29.60;;;17.27;27.70;101785.44;12249629;19;19923;-84
2023/06/05 00:05:08;;;;;;;;;;;18.10;29.60;;;17.35;27.74;101813.03;12250758;19;20270;-84
2023/06/05 00:09:10;;;;;;;;;;;18.00;29.60;;;17.28;27.61;101809.09;12249053;19;19986;-84
2023/06/05 00:13:11;;;;;;;;;;;18.00;29.70;;;17.23;27.79;101800.66;12251892;19;19918;-84
2023/06/05 00:17:13;;;;;;;;;;;17.90;29.70;;;17.05;27.48;101783.38;12244922;19;20013;-84
2023/06/05 00:21:15;;;;;;;;;;;17.90;29.70;;;17.07;27.58;101802.59;12248872;19;19919;-84
2023/06/05 00:25:17;;;;;;;;;;;17.80;29.80;;;16.94;27.81;101790.19;12245060;19;19926;-84
2023/06/05 00:29:19;;;;;;;;;;;17.80;29.80;;;16.98;27.86;101811.94;12248799;19;19982;-84
2023/06/05 00:33:20;;;;;;;;;;;17.80;29.80;;;16.83;27.75;101797.13;12247960;19;19918;-84
2023/06/05 00:37:22;;;;;;;;;;;17.70;29.80;;;16.86;27.84;101816.22;12245427;19;20453;-84
2023/06/05 00:41:25;;;;;;;;;;;17.60;29.90;;;16.75;27.97;101818.69;12248877;19;20542;-84
2023/06/05 00:45:27;;;;;;;;;;;17.60;29.90;;;16.73;27.78;101820.56;12249088;19;19931;-84
2023/06/05 00:49:29;;;;;;;;;;;17.50;29.90;;;16.58;28.10;101810.06;12244930;19;19914;-84
2023/06/05 00:53:34;;;;;;;;;;;17.40;29.90;;;16.47;27.97;101801.09;12248419;19;19936;-84
2023/06/05 00:57:38;;;;;;;;;;;17.30;30.00;;;16.35;27.93;101802.72;12240031;19;19936;-84
2023/06/05 01:01:42;;;;;;;;;;;17.20;29.90;;;16.34;28.20;101808.97;12247307;19;19915;-84
2023/06/05 01:05:47;;;;;;;;;;;17.20;30.00;;;16.24;28.20;101807.81;12245125;19;19925;-84
2023/06/05 01:09:50;;;;;;;;;;;17.00;30.00;;;16.19;28.17;101807.25;12245463;19;20333;-84
2023/06/05 01:14:27;;;;;;;;;;;17.00;30.00;;;16.08;28.28;101797.38;12247565;19;20660;-84
2023/06/05 01:18:30;;;;;;;;;;;16.90;30.60;;;16.00;28.50;101795.19;12247475;19;19922;-84
2023/06/05 01:22:32;;;;;;;;;;;16.80;30.20;;;15.72;28.42;101756.53;12246586;19;20302;-84
2023/06/05 01:26:52;;;;;;;;;;;16.80;30.30;;;15.93;28.40;101805.28;12244862;19;19907;-83
2023/06/05 01:31:15;;;;;;;;;;;16.80;30.30;;;15.66;28.35;101760.34;12247512;19;19940;-84
2023/06/05 01:35:17;;;;;;;;;;;16.70;30.20;;;15.66;28.51;101783.19;12242243;19;20352;-83
2023/06/05 01:39:19;;;;;;;;;;;16.70;30.30;;;15.77;28.42;101799.25;12245224;19;19943;-84
2023/06/05 01:43:21;;;;;;;;;;;16.60;30.30;;;15.76;28.55;101802.78;12245375;19;19922;-83
2023/06/05 01:47:23;;;;;;;;;;;16.50;30.30;;;15.69;28.70;101798.84;12245630;19;19929;-84
2023/06/05 01:51:25;;;;;;;;;;;16.50;30.40;;;15.69;28.58;101806.75;12245092;19;19915;-83
2023/06/05 01:55:28;;;;;;;;;;;16.50;30.40;;;15.33;28.78;101752.66;12243396;19;19922;-84
2023/06/05 01:59:29;;;;;;;;;;;16.50;30.40;;;15.58;28.82;101795.94;12243337;19;20396;-83
2023/06/05 02:03:32;;;;;;;;;;;16.40;30.40;;;15.55;28.92;101798.75;12251222;19;19982;-84
2023/06/05 02:07:33;;;;;;;;;;;16.40;30.40;;;15.51;28.96;101798.09;12254871;19;20327;-84
2023/06/05 02:11:37;;;;;;;;;;;16.40;30.40;;;15.47;28.97;101786.94;12257880;19;19930;-84
2023/06/05 02:15:38;;;;;;;;;;;16.30;30.50;;;15.43;28.96;101798.56;12255924;19;19926;-84
2023/06/05 02:19:40;;;;;;;;;;;16.30;30.80;;;15.36;28.95;101793.72;12255960;19;19918;-84
2023/06/05 02:23:43;;;;;;;;;;;16.20;30.70;;;15.29;28.97;101780.09;12257410;19;19926;-84
2023/06/05 02:27:45;;;;;;;;;;;16.20;30.70;;;15.16;29.02;101765.94;12256538;19;19919;-84
2023/06/05 02:31:46;;;;;;;;;;;16.10;30.70;;;15.16;29.04;101768.59;12258681;19;19915;-84
2023/06/05 02:35:48;;;;;;;;;;;16.10;30.70;;;15.15;29.19;101766.88;12255222;19;19918;-83
2023/06/05 02:39:50;;;;;;;;;;;16.00;30.70;;;15.08;29.21;101760.28;12256919;19;20114;-83
2023/06/05 02:43:54;;;;;;;;;;;16.00;30.70;;;15.10;29.16;101772.41;12258760;19;19934;-84
2023/06/05 02:47:56;;;;;;;;;;;16.00;30.70;;;15.01;29.32;101763.28;12259017;19;19923;-83
2023/06/05 02:51:58;;;;;;;;;;;15.90;30.70;;;14.96;29.30;101760.06;12256788;19;19926;-85
2023/06/05 02:56:01;;;;;;;;;;;15.90;30.90;;;14.96;29.27;101762.69;12252835;19;19922;-83
2023/06/05 03:00:07;;;;;;;;;;;15.90;30.80;;;14.90;29.43;101759.53;12254316;19;19950;-84
2023/06/05 03:04:13;;;;;;;;;;;15.80;30.80;;;14.90;29.36;101765.63;12256300;19;19919;-84
2023/06/05 03:08:15;;;;;;;;;;;15.80;30.90;;;14.80;29.50;101765.34;12255447;19;19923;-84
2023/06/05 03:12:16;;;;;;;;;;;15.80;30.90;;;14.80;29.52;101757.44;12255715;19;19988;-84
2023/06/05 03:16:18;;;;;;;;;;;15.70;30.90;;;14.76;29.56;101748.03;12250718;19;19940;-84
2023/06/05 03:20:25;;;;;;;;;;;15.70;30.90;;;14.78;29.51;101758.47;12254233;19;19914;-84
2023/06/05 03:24:27;;;;;;;;;;;15.70;31.00;;;14.74;29.72;101759.56;12254190;19;20329;-84
2023/06/05 03:28:36;;;;;;;;;;;15.70;31.00;;;14.72;29.67;101761.44;12252685;19;19915;-84
2023/06/05 03:32:41;;;;;;;;;;;15.60;31.10;;;14.66;29.57;101759.97;12255561;19;19919;-84
2023/06/05 03:36:43;;;;;;;;;;;15.60;31.10;;;14.59;29.60;101746.34;12251890;19;19929;-84
2023/06/05 03:40:47;;;;;;;;;;;15.60;31.10;;;14.49;29.70;101739.84;12254357;19;19942;-84
2023/06/05 03:44:52;;;;;;;;;;;15.60;31.10;;;14.65;29.75;101765.34;12253000;19;19930;-84
2023/06/05 03:48:59;;;;;;;;;;;15.60;31.10;;;14.62;29.86;101768.97;12252814;19;19931;-84
2023/06/05 03:53:04;;;;;;;;;;;15.50;31.10;;;14.58;29.81;101763.06;12255436;19;19917;-85
2023/06/05 03:57:12;;;;;;;;;;;15.50;31.20;;;14.58;29.90;101770.94;12253805;19;19918;-84
2023/06/05 04:01:16;;;;;;;;;;;15.60;31.30;;;14.56;29.88;101761.44;12256960;19;20368;-84
2023/06/05 04:05:17;;;;;;;;;;;15.60;31.30;;;14.62;30.00;101776.03;12256203;19;19914;-84
2023/06/05 04:09:20;;;;;;;;;;;15.50;31.30;;;14.45;29.95;101748.88;12255482;19;19923;-84
2023/06/05 04:13:21;;;;;;;;;;;15.50;31.30;;;14.57;30.10;101771.84;12250332;19;19926;-84
2023/06/05 04:17:23;;;;;;;;;;;15.50;31.30;;;14.57;30.08;101773.66;12249959;19;20465;-84
2023/06/05 04:21:25;;;;;;;;;;;15.50;31.40;;;14.55;30.19;101771.09;12251716;19;19914;-84
2023/06/05 04:25:28;;;;;;;;;;;15.60;31.50;;;14.65;30.12;101786.38;12245549;19;19974;-84
2023/06/05 04:29:32;;;;;;;;;;;15.60;31.60;;;14.64;30.23;101779.44;12246808;19;19922;-84
2023/06/05 04:33:34;;;;;;;;;;;15.60;31.70;;;14.58;30.22;101770.94;12246171;19;19933;-84
2023/06/05 04:37:37;;;;;;;;;;;15.70;31.70;;;14.68;30.34;101778.31;12248585;19;19915;-84
2023/06/05 04:41:44;;;;;;;;;;;15.70;31.70;;;14.64;30.29;101764.50;12248456;19;19915;-84
2023/06/05 04:45:48;;;;;;;;;;;15.70;32.30;;;14.66;30.37;101780.16;12245673;19;19943;-85
2023/06/05 04:49:52;;;;;;;;;;;15.70;32.10;;;14.65;30.44;101762.72;12243993;19;19927;-84
2023/06/05 04:53:56;;;;;;;;;;;15.70;32.20;;;14.52;30.59;101738.84;12245928;19;19940;-84
2023/06/05 04:58:00;;;;;;;;;;;15.80;32.40;;;14.75;30.68;101764.75;12246212;19;20248;-84
2023/06/05 05:02:04;;;;;;;;;;;15.90;32.70;;;14.90;30.69;101765.63;12246856;19;19986;-84
2023/06/05 05:06:09;;;;;;;;;;;15.90;32.60;;;14.92;30.72;101755.88;12244413;19;19944;-85
2023/06/05 05:10:14;;;;;;;;;;;16.00;32.60;;;14.99;30.68;101756.41;12243683;19;19999;-84
2023/06/05 05:14:17;;;;;;;;;;;16.10;32.70;;;15.21;30.85;101770.00;12246920;19;19922;-85
2023/06/05 05:18:19;;;;;;;;;;;16.20;32.80;;;15.26;30.83;101770.59;12245301;19;19922;-85
2023/06/05 05:22:21;;;;;;;;;;;16.40;33.00;;;15.36;30.85;101773.50;12249650;19;19911;-85
2023/06/05 05:26:23;;;;;;;;;;;16.50;32.90;;;15.48;30.97;101775.44;12245195;19;19925;-85
2023/06/05 05:30:25;;;;;;;;;;;16.60;32.90;;;15.45;31.05;101744.03;12248771;19;19926;-85
2023/06/05 05:34:27;;;;;;;;;;;16.70;32.90;;;15.80;30.96;101777.97;12244196;19;19927;-84
2023/06/05 05:38:29;;;;;;;;;;;16.90;33.20;;;15.90;31.28;101768.59;12253671;19;20642;-84
2023/06/05 05:42:32;;;;;;;;;;;17.10;33.20;;;16.09;31.41;101764.81;12256195;19;20269;-85
2023/06/05 05:46:35;;;;;;;;;;;17.30;33.10;;;16.43;31.33;101789.91;12254605;19;19997;-85
2023/06/05 05:50:36;;;;;;;;;;;17.60;33.20;;;16.64;31.40;101777.16;12255830;19;20621;-83
2023/06/05 05:54:38;;;;;;;;;;;17.80;33.00;;;16.65;31.68;101741.91;12256409;19;19926;-84
2023/06/05 05:58:39;;;;;;;;;;;18.10;33.30;;;16.90;31.49;101751.75;12255731;19;19938;-85
2023/06/05 06:02:41;;;;;;;;;;;18.30;32.90;;;17.30;31.54;101786.06;12258744;19;19919;-84
2023/06/05 06:06:43;;;;;;;;;;;18.60;33.00;;;17.59;31.66;101797.31;12254016;19;19915;-84
2023/06/05 06:10:45;;;;;;;;;;;18.90;33.70;;;17.74;31.58;101792.81;12254206;19;19926;-84
2023/06/05 06:14:48;;;;;;;;;;;19.10;33.50;;;18.01;31.57;101802.44;12252203;19;19942;-85
2023/06/05 06:18:50;;;;;;;;;;;19.30;33.00;;;18.27;31.63;101813.84;12252725;19;19919;-84
2023/06/05 06:22:51;;;;;;;;;;;19.50;32.60;;;18.46;31.57;101811.59;12255332;19;20388;-84
2023/06/05 06:26:53;;;;;;;;;;;19.80;32.50;;;18.72;31.54;101806.25;12250129;19;19922;-85
2023/06/05 06:30:54;;;;;;;;;;;20.00;32.60;;;18.95;31.89;101804.59;12253375;19;19923;-85
2023/06/05 06:34:56;;;;;;;;;;;20.30;32.60;;;19.24;31.92;101811.22;12251036;19;19926;-85
2023/06/05 06:38:58;;;;;;;;;;;20.60;32.60;;;19.36;31.93;101796.22;12252375;19;19919;-86
2023/06/05 06:43:00;;;;;;;;;;;20.80;32.40;;;19.63;31.58;101805.66;12252893;19;19942;-84
2023/06/05 06:47:10;;;;;;;;;;;21.10;32.30;;;19.85;31.67;101800.47;12243330;19;19929;-85
2023/06/05 06:51:12;;;;;;;;;;;21.30;32.10;;;20.07;31.53;101807.59;12251702;19;20348;-86
2023/06/05 06:55:13;;;;;;;;;;;21.50;32.10;;;20.26;31.52;101809.63;12250323;19;20329;-85
2023/06/05 06:59:15;;;;;;;;;;;21.70;32.50;;;20.43;31.54;101810.09;12254005;19;19930;-85
2023/06/05 07:03:17;;;;;;;;;;;21.90;32.20;;;20.66;31.16;101822.41;12249210;19;19934;-86
2023/06/05 07:07:21;;;;;;;;;;;22.00;31.60;;;20.79;31.43;101814.28;12248525;19;20402;-86
2023/06/05 07:11:22;;;;;;;;;;;22.20;31.60;;;21.02;31.21;101811.59;12253518;19;19914;-84
2023/06/05 07:15:23;;;;;;;;;;;22.30;31.60;;;21.14;31.32;101806.13;12250089;19;19922;-84
2023/06/05 07:19:25;;;;;;;;;;;22.50;32.00;;;21.22;31.11;101786.84;12249271;19;19926;-86
2023/06/05 07:23:27;;;;;;;;;;;22.70;31.60;;;21.46;31.21;101794.63;12249260;19;19918;-84
2023/06/05 07:27:29;;;;;;;;;;;22.90;31.60;;;21.76;31.05;101807.13;12249559;19;19946;-84
2023/06/05 07:31:30;;;;;;;;;;;23.10;31.40;;;21.98;30.91;101805.28;12254672;19;19915;-85
2023/06/05 07:35:31;;;;;;;;;;;23.30;31.10;;;22.21;31.28;101808.63;12251897;19;19922;-85
2023/06/05 07:39:34;;;;;;;;;;;23.50;30.90;;;22.37;31.29;101814.28;12254148;19;19927;-86
2023/06/05 07:43:39;;;;;;;;;;;23.70;30.80;;;22.57;30.79;101817.00;12252239;19;20081;-85
2023/06/05 07:47:41;;;;;;;;;;;23.80;30.00;;;22.66;30.90;101797.56;12254549;19;19991;-84
2023/06/05 07:51:43;;;;;;;;;;;24.00;30.60;;;22.93;30.69;101803.06;12252071;19;19927;-85
2023/06/05 07:55:45;;;;;;;;;;;24.20;29.20;;;23.11;30.69;101799.72;12250987;19;19919;-85
2023/06/05 07:59:48;;;;;;;;;;;24.40;29.90;;;23.31;30.86;101801.41;12250949;19;20693;-85
2023/06/05 08:03:50;;;;;;;;;;;24.60;30.10;;;23.47;30.75;101792.00;12250147;19;20341;-86
2023/06/05 08:07:51;;;;;;;;;;;24.80;30.20;;;23.78;30.63;101811.31;12249247;19;19942;-84
2023/06/05 08:11:53;;;;;;;;;;;25.00;29.30;;;23.91;30.29;101795.00;12251944;19;20277;-85
2023/06/05 08:15:55;;;;;;;;;;;25.20;29.00;;;24.17;30.16;101806.69;12247595;19;20340;-85
2023/06/05 08:19:56;;;;;;;;;;;25.40;27.90;;;24.35;30.01;101806.75;12252864;19;19918;-85
2023/06/05 08:23:58;;;;;;;;;;;25.60;29.60;;;24.38;30.03;101781.56;12249974;19;19970;-85
2023/06/05 08:28:00;;;;;;;;;;;25.70;29.50;;;24.61;30.27;101792.72;12249696;19;19915;-85
2023/06/05 08:32:04;;;;;;;;;;;25.90;29.80;;;24.62;30.20;101763.19;12244827;19;19911;-85
2023/06/05 08:36:09;;;;;;;;;;;26.10;29.00;;;24.93;29.68;101784.19;12246404;19;20216;-85
2023/06/05 08:40:12;;;;;;;;;;;26.20;29.40;;;25.01;29.65;101770.06;12250797;19;19922;-85
2023/06/05 08:44:13;;;;;;;;;;;26.30;29.70;;;25.13;29.74;101761.63;12250371;19;19926;-85
2023/06/05 08:48:17;;;;;;;;;;;26.40;29.10;;;25.02;29.48;101724.47;12246634;19;19927;-85
2023/06/05 08:52:21;;;;;;;;;;;26.50;27.90;;;25.32;29.12;101752.63;12249224;19;19919;-85
2023/06/05 08:56:24;;;;;;;;;;;26.60;29.10;;;25.44;29.67;101760.38;12245711;19;19922;-86
2023/06/05 09:00:25;;;;;;;;;;;26.70;28.20;;;25.59;29.69;101759.66;12249801;19;19935;-86
2023/06/05 09:04:30;;;;;;;;;;;26.80;28.60;;;25.67;29.50;101753.50;12248393;19;19931;-85
2023/06/05 09:08:32;;;;;;;;;;;26.90;29.60;;;25.86;28.90;101760.50;12246745;19;19915;-86
2023/06/05 09:12:57;;;;;;;;;;;27.00;28.70;;;25.98;29.15;101769.13;12255754;19;20338;-86
2023/06/05 09:17:00;;;;;;;;;;;27.10;28.20;;;25.96;28.86;101758.56;12256354;19;19953;-84
2023/06/05 09:21:11;;;;;;;;;;;27.20;29.10;;;26.14;29.01;101762.97;12254902;19;19990;-84
2023/06/05 09:25:14;;;;;;;;;;;27.20;28.10;;;26.01;28.90;101725.97;12257555;19;20262;-84
2023/06/05 09:29:22;;;;;;;;;;;27.30;28.80;;;26.32;28.61;101757.50;12257712;19;20360;-85
2023/06/05 09:33:25;;;;;;;;;;;27.40;29.00;;;26.34;28.53;101724.22;12260523;19;19939;-85
2023/06/05 09:37:37;;;;;;;;;;;27.60;29.10;;;26.72;28.36;101756.78;12254306;19;19951;-85
2023/06/05 09:41:42;;;;;;;;;;;27.70;29.30;;;26.85;28.19;101751.78;12259648;19;20306;-85
2023/06/05 09:45:43;;;;;;;;;;;28.00;28.70;;;26.92;28.53;101735.84;12257152;19;20686;-86
2023/06/05 09:49:45;;;;;;;;;;;28.00;28.60;;;27.06;28.41;101743.25;12254437;19;19938;-86
2023/06/05 09:53:53;;;;;;;;;;;28.20;28.60;;;27.17;28.30;101736.72;12255668;19;20014;-86
2023/06/05 09:57:56;;;;;;;;;;;28.30;29.00;;;27.25;28.15;101735.91;12256267;19;19950;-85
2023/06/05 10:02:06;;;;;;;;;;;28.40;27.30;;;27.32;27.87;101731.50;12256000;19;20336;-87
2023/06/05 10:06:07;;;;;;;;;;;28.40;28.20;;;27.35;27.88;101726.66;12255193;19;20333;-86
2023/06/05 10:10:10;;;;;;;;;;;28.50;28.30;;;27.34;27.82;101711.53;12251951;19;19926;-85
2023/06/05 10:14:12;;;;;;;;;;;28.50;28.10;;;27.50;27.88;101717.91;12257930;19;19923;-86
2023/06/05 10:18:13;;;;;;;;;;;28.60;28.30;;;27.53;27.50;101712.19;12255852;19;19915;-85
2023/06/05 10:22:18;;;;;;;;;;;28.70;28.70;;;27.61;27.48;101714.84;12255134;19;19915;-85
2023/06/05 10:26:35;;;;;;;;;;;28.70;26.70;;;27.73;27.50;101707.22;12251748;19;19925;-86
2023/06/05 10:30:46;;;;;;;;;;;28.70;27.70;;;27.65;26.76;101689.31;12249440;19;19923;-85
2023/06/05 10:34:54;;;;;;;;;;;28.80;28.10;;;27.73;26.73;101707.22;12254135;19;19930;-86
2023/06/05 10:38:56;;;;;;;;;;;28.80;28.60;;;27.84;27.07;101714.09;12253326;19;19959;-86
2023/06/05 10:43:26;;;;;;;;;;;28.80;27.30;;;27.91;26.83;101704.34;12249219;19;19927;-87
2023/06/05 10:47:33;;;;;;;;;;;28.90;28.10;;;27.95;26.64;101700.28;12247957;19;20337;-86
2023/06/05 10:51:39;;;;;;;;;;;28.90;28.00;;;27.97;27.02;101699.09;12253292;19;19907;-85
2023/06/05 10:55:42;;;;;;;;;;;28.90;27.50;;;27.73;26.82;101643.66;12249780;19;19918;-87
2023/06/05 10:59:43;;;;;;;;;;;29.00;28.20;;;28.14;26.38;101696.31;12251832;19;20341;-86
2023/06/05 11:04:03;;;;;;;;;;;29.10;28.00;;;28.19;26.69;101692.13;12250553;19;19990;-84
2023/06/05 11:08:18;;;;;;;;;;;29.10;26.00;;;28.22;26.54;101683.72;12242447;19;20597;-84
2023/06/05 11:12:19;;;;;;;;;;;29.20;27.80;;;28.18;26.81;101674.31;12252346;19;20004;-84
2023/06/05 11:16:32;;;;;;;;;;;29.20;26.70;;;28.26;25.86;101680.66;12237889;19;20341;-84
2023/06/05 11:20:33;;;;;;;;;;;29.20;26.40;;;28.29;26.10;101685.66;12249354;19;19960;-84
2023/06/05 11:24:36;;;;;;;;;;;29.20;25.20;;;28.29;25.99;101683.81;12249306;19;19923;-83
2023/06/05 11:28:44;;;;;;;;;;;29.20;25.10;;;28.27;25.94;101671.56;12252387;19;19922;-84
2023/06/05 11:32:47;;;;;;;;;;;29.20;27.30;;;28.20;25.82;101664.25;12249884;19;19926;-83
2023/06/05 11:36:49;;;;;;;;;;;29.20;26.70;;;28.34;25.55;101662.63;12247130;19;19919;-84
2023/06/05 11:40:51;;;;;;;;;;;29.30;27.30;;;28.51;25.57;101676.81;12248259;19;19918;-84
2023/06/05 11:44:53;;;;;;;;;;;29.30;26.20;;;28.58;25.60;101656.25;12251014;19;20300;-84
2023/06/05 11:48:54;;;;;;;;;;;29.50;26.80;;;28.71;25.67;101657.53;12244403;19;19994;-84
2023/06/05 11:53:07;;;;;;;;;;;29.50;26.10;;;28.68;25.41;101634.53;12251824;19;19919;-84
2023/06/05 11:57:10;;;;;;;;;;;29.60;26.20;;;28.75;25.31;101645.38;12237538;19;19978;-84
2023/06/05 12:01:22;;;;;;;;;;;29.60;27.00;;;28.80;25.61;101640.28;12242669;19;20741;-84
2023/06/05 12:05:23;;;;;;;;;;;29.70;27.00;;;28.81;25.40;101653.56;12242466;19;19923;-84
2023/06/05 12:09:25;;;;;;;;;;;29.70;26.20;;;28.80;25.49;101651.88;12242692;19;19930;-83
2023/06/05 12:13:47;;;;;;;;;;;29.70;27.10;;;28.87;25.12;101643.91;12244309;19;19943;-83
2023/06/05 12:17:53;;;;;;;;;;;29.70;27.50;;;28.84;25.01;101636.19;12242705;19;20594;-84
2023/06/05 12:22:05;;;;;;;;;;;29.80;27.20;;;28.82;24.78;101622.13;12242786;19;19919;-84
2023/06/05 12:26:07;;;;;;;;;;;29.70;26.30;;;28.74;24.88;101614.13;12240262;19;19959;-84
2023/06/05 12:30:09;;;;;;;;;;;29.70;25.20;;;28.78;24.69;101626.19;12239908;19;19943;-83
2023/06/05 12:34:11;;;;;;;;;;;29.60;26.50;;;28.73;25.04;101613.28;12242536;19;20467;-83
2023/06/05 12:38:13;;;;;;;;;;;29.60;27.00;;;28.81;24.78;101615.06;12252763;19;20421;-83
2023/06/05 12:42:15;;;;;;;;;;;29.60;26.80;;;28.78;24.42;101599.28;12251118;19;20275;-84
2023/06/05 12:46:17;;;;;;;;;;;29.60;26.80;;;28.95;24.79;101602.63;12248519;19;19922;-84
2023/06/05 12:50:19;;;;;;;;;;;29.70;27.10;;;28.84;24.78;101555.53;12256974;19;19978;-84
2023/06/05 12:54:21;;;;;;;;;;;29.80;27.10;;;29.05;24.62;101584.41;12257396;19;19918;-84
2023/06/05 12:58:22;;;;;;;;;;;29.90;26.50;;;29.23;24.77;101597.50;12258112;19;19915;-83
2023/06/05 13:02:24;;;;;;;;;;;30.00;27.20;;;29.27;24.67;101574.56;12257636;19;20301;-84
2023/06/05 13:06:27;;;;;;;;;;;30.10;27.50;;;29.24;24.60;101553.41;12252812;19;19918;-84
2023/06/05 13:10:29;;;;;;;;;;;30.20;27.60;;;29.42;24.82;101580.78;12253209;19;19915;-84
2023/06/05 13:14:31;;;;;;;;;;;30.30;26.50;;;29.40;24.47;101563.13;12257618;19;20245;-84
2023/06/05 13:18:33;;;;;;;;;;;30.40;27.30;;;29.47;24.59;101564.88;12255255;19;19983;-84
2023/06/05 13:22:35;;;;;;;;;;;30.40;27.30;;;29.48;24.42;101557.66;12255613;19;19948;-84
2023/06/05 13:26:37;;;;;;;;;;;30.40;26.60;;;29.57;24.38;101564.59;12253335;19;19938;-84
2023/06/05 13:30:38;;;;;;;;;;;30.50;27.10;;;29.63;24.71;101565.69;12253617;19;19927;-84
2023/06/05 13:34:40;;;;;;;;;;;30.50;27.40;;;29.63;24.66;101549.53;12257131;19;19915;-83
2023/06/05 13:38:42;;;;;;;;;;;30.50;27.50;;;29.49;24.40;101522.47;12253041;19;19919;-82
2023/06/05 13:42:44;;;;;;;;;;;30.50;27.20;;;29.65;24.22;101547.50;12251643;19;19918;-82
2023/06/05 13:46:46;;;;;;;;;;;30.50;26.50;;;29.61;24.23;101546.19;12248035;19;19910;-83
2023/06/05 13:50:48;;;;;;;;;;;30.50;27.10;;;29.59;24.31;101529.41;12251014;19;19922;-84
2023/06/05 13:54:49;;;;;;;;;;;30.50;27.20;;;29.65;24.61;101534.03;12249706;19;19924;-84
2023/06/05 13:58:52;;;;;;;;;;;30.50;27.00;;;29.69;24.12;101521.88;12257195;19;19915;-83
2023/06/05 14:02:53;;;;;;;;;;;30.50;26.50;;;29.74;23.92;101517.59;12262701;19;19919;-85
2023/06/05 14:06:55;;;;;;;;;;;30.60;27.20;;;29.81;24.17;101519.50;12260471;19;20332;-85
2023/06/05 14:10:56;;;;;;;;;;;30.60;26.10;;;29.84;24.12;101525.34;12261695;19;19915;-85
2023/06/05 14:14:58;;;;;;;;;;;30.60;25.60;;;29.83;24.06;101523.66;12261840;19;19919;-84
2023/06/05 14:19:00;;;;;;;;;;;30.60;26.90;;;29.83;23.72;101512.91;12272050;19;19915;-84
2023/06/05 14:23:01;;;;;;;;;;;30.70;26.70;;;29.81;23.82;101514.94;12267140;19;19935;-85
2023/06/05 14:27:03;;;;;;;;;;;30.70;27.20;;;29.86;23.91;101528.66;12259348;19;19918;-85
2023/06/05 14:31:05;;;;;;;;;;;30.70;27.10;;;29.67;23.55;101488.94;12263705;19;19932;-85
2023/06/05 14:35:07;;;;;;;;;;;30.60;27.30;;;29.63;23.72;101480.38;12259094;19;19994;-85
2023/06/05 14:39:08;;;;;;;;;;;30.60;27.00;;;29.76;23.76;101515.53;12255135;19;20108;-85
2023/06/05 14:43:10;;;;;;;;;;;30.60;27.30;;;29.64;23.54;101505.47;12265536;19;19966;-84
2023/06/05 14:47:11;;;;;;;;;;;30.50;27.20;;;29.57;23.76;101502.69;12256536;19;19948;-85
2023/06/05 14:51:13;;;;;;;;;;;30.50;27.10;;;29.45;23.82;101483.50;12260115;19;19926;-84
2023/06/05 14:55:15;;;;;;;;;;;30.40;27.10;;;29.56;23.83;101496.44;12259626;19;19926;-85
2023/06/05 14:59:16;;;;;;;;;;;30.40;27.20;;;29.55;23.90;101489.41;12257675;19;19942;-85
2023/06/05 15:03:18;;;;;;;;;;;30.40;27.00;;;29.65;23.69;101488.28;12259839;19;19914;-85
2023/06/05 15:07:20;;;;;;;;;;;30.40;27.10;;;29.71;23.59;101501.00;12255178;19;19915;-85
2023/06/05 15:11:22;;;;;;;;;;;30.40;26.50;;;29.66;23.69;101485.41;12256246;19;19936;-85
2023/06/05 15:15:24;;;;;;;;;;;30.40;27.00;;;29.71;23.57;101491.03;12256057;19;19923;-85
2023/06/05 15:19:26;;;;;;;;;;;30.40;27.00;;;29.77;23.49;101492.97;12258114;19;19942;-85
2023/06/05 15:23:27;;;;;;;;;;;30.40;27.20;;;29.71;23.86;101487.53;12260532;19;19922;-85
2023/06/05 15:27:29;;;;;;;;;;;30.40;26.50;;;29.71;23.91;101477.59;12255600;19;19914;-85
2023/06/05 15:31:30;;;;;;;;;;;30.40;26.80;;;29.73;23.40;101490.84;12260373;19;19965;-85
2023/06/05 15:35:32;;;;;;;;;;;30.40;26.70;;;29.65;23.79;101466.75;12256613;19;20345;-84
2023/06/05 15:39:33;;;;;;;;;;;30.40;26.90;;;29.64;23.87;101471.28;12255449;19;20025;-84
2023/06/05 15:43:35;;;;;;;;;;;30.40;26.60;;;29.65;23.52;101475.66;12253091;19;19914;-83
2023/06/05 15:47:37;;;;;;;;;;;30.30;26.40;;;29.67;23.30;101468.22;12257815;19;19915;-84
2023/06/05 15:51:39;;;;;;;;;;;30.30;26.70;;;29.62;23.61;101467.09;12254399;19;19918;-85
2023/06/05 15:55:41;;;;;;;;;;;30.30;26.90;;;29.58;23.55;101471.22;12254235;19;19907;-84
2023/06/05 15:59:45;;;;;;;;;;;30.30;26.80;;;29.51;23.35;101463.88;12254367;19;19914;-84
2023/06/05 16:03:46;;;;;;;;;;;30.30;26.60;;;29.50;23.46;101464.91;12256475;19;19919;-84
2023/06/05 16:07:49;;;;;;;;;;;30.20;26.80;;;29.49;23.25;101473.19;12254055;19;19923;-84
2023/06/05 16:11:50;;;;;;;;;;;30.20;26.90;;;29.40;23.48;101455.50;12257431;19;19947;-84
2023/06/05 16:15:52;;;;;;;;;;;30.10;26.90;;;29.49;23.60;101476.72;12253246;19;20011;-84
2023/06/05 16:19:53;;;;;;;;;;;30.10;26.60;;;29.47;23.41;101473.38;12259770;19;19966;-84
2023/06/05 16:23:55;;;;;;;;;;;30.10;26.40;;;29.41;23.17;101465.22;12251534;19;20608;-84
2023/06/05 16:27:57;;;;;;;;;;;30.10;26.70;;;29.23;23.47;101436.06;12259170;19;19915;-85
2023/06/05 16:31:58;;;;;;;;;;;30.10;26.70;;;29.43;23.63;101472.06;12254300;19;19915;-84
2023/06/05 16:36:00;;;;;;;;;;;30.00;26.80;;;29.40;23.23;101455.50;12254966;19;20309;-84
2023/06/05 16:40:01;;;;;;;;;;;30.10;26.90;;;29.37;23.33;101454.00;12257284;19;19927;-85
2023/06/05 16:44:03;;;;;;;;;;;30.00;26.70;;;29.40;23.12;101445.56;12253543;19;19953;-85
2023/06/05 16:48:04;;;;;;;;;;;30.00;26.80;;;29.39;23.14;101446.59;12250180;19;19937;-85
2023/06/05 16:52:06;;;;;;;;;;;30.00;26.70;;;29.36;23.23;101440.75;12251029;19;19962;-85
2023/06/05 16:56:07;;;;;;;;;;;30.00;26.70;;;29.26;23.12;101441.06;12252562;19;20341;-85
2023/06/05 17:00:10;;;;;;;;;;;30.00;26.80;;;29.27;23.33;101442.72;12250977;19;20289;-85
2023/06/05 17:04:12;;;;;;;;;;;29.90;26.80;;;29.19;23.15;101445.53;12251698;19;19915;-84
2023/06/05 17:08:13;;;;;;;;;;;29.90;26.80;;;29.11;23.02;101441.94;12252121;19;19918;-85
2023/06/05 17:12:15;;;;;;;;;;;29.80;26.60;;;29.07;23.25;101454.09;12251863;19;19915;-84
2023/06/05 17:16:16;;;;;;;;;;;29.70;26.80;;;29.03;23.03;101450.09;12250130;19;19979;-84
2023/06/05 17:20:18;;;;;;;;;;;29.70;26.70;;;28.98;23.49;101440.94;12249745;19;19945;-84
2023/06/05 17:24:22;;;;;;;;;;;29.60;26.80;;;28.92;23.06;101447.88;12246832;19;19910;-83
2023/06/05 17:28:23;;;;;;;;;;;29.60;26.90;;;28.87;23.26;101439.56;12249927;19;19982;-85
2023/06/05 17:32:25;;;;;;;;;;;29.50;27.00;;;28.84;23.22;101447.97;12256591;19;19928;-85
2023/06/05 17:36:28;;;;;;;;;;;29.50;26.90;;;28.75;23.13;101447.25;12263186;19;20360;-85
2023/06/05 17:40:30;;;;;;;;;;;29.40;27.00;;;28.57;23.10;101419.91;12266589;19;20352;-85
2023/06/05 17:44:32;;;;;;;;;;;29.30;27.00;;;28.65;23.53;101450.25;12262398;19;20305;-85
2023/06/05 17:48:33;;;;;;;;;;;29.30;27.10;;;28.52;23.19;101433.09;12256152;19;19922;-84
2023/06/05 17:52:35;;;;;;;;;;;29.20;27.00;;;28.48;23.31;101435.31;12259626;19;19922;-85
2023/06/05 17:56:44;;;;;;;;;;;29.10;27.00;;;28.42;23.18;101431.47;12255966;19;19959;-84
2023/06/05 18:00:48;;;;;;;;;;;29.10;27.20;;;28.44;23.23;101434.03;12257632;19;19938;-85
2023/06/05 18:04:49;;;;;;;;;;;29.00;27.10;;;28.40;23.15;101440.75;12258570;19;20609;-84
2023/06/05 18:08:52;;;;;;;;;;;29.00;27.10;;;28.35;23.38;101437.78;12261393;19;19918;-85
2023/06/05 18:12:53;;;;;;;;;;;29.00;27.20;;;28.32;23.37;101432.78;12270606;19;19993;-85